sensor_id;sensor_type;location;lat;lon;timestamp;P1;durP1;ratioP1;P2;durP2;ratioP2
20635;SDS011;10477;43.198;27.916;2022-09-27T00:01:08;52.23;;;48.43;;
20635;SDS011;10477;43.198;27.916;2022-09-27T00:03:37;52.40;;;48.60;;
20635;SDS011;10477;43.198;27.916;2022-09-27T00:06:06;53.73;;;49.83;;
20635;SDS011;10477;43.198;27.916;2022-09-27T00:08:36;53.37;;;49.57;;
20635;SDS011;10477;43.198;27.916;2022-09-27T00:11:05;53.60;;;49.70;;
20635;SDS011;10477;43.198;27.916;2022-09-27T00:13:34;56.23;;;52.23;;
20635;SDS011;10477;43.198;27.916;2022-09-27T00:16:02;51.57;;;47.87;;
20635;SDS011;10477;43.198;27.916;2022-09-27T00:18:31;55.23;;;51.30;;
20635;SDS011;10477;43.198;27.916;2022-09-27T00:21:11;56.47;;;52.37;;
20635;SDS011;10477;43.198;27.916;2022-09-27T00:23:34;51.27;;;47.60;;
20635;SDS011;10477;43.198;27.916;2022-09-27T00:26:03;51.83;;;48.13;;
20635;SDS011;10477;43.198;27.916;2022-09-27T00:28:33;49.37;;;45.77;;
20635;SDS011;10477;43.198;27.916;2022-09-27T00:34:23;51.03;;;47.23;;
20635;SDS011;10477;43.198;27.916;2022-09-27T00:36:52;47.47;;;43.97;;
20635;SDS011;10477;43.198;27.916;2022-09-27T00:39:20;52.63;;;48.83;;
20635;SDS011;10477;43.198;27.916;2022-09-27T00:41:48;50.40;;;46.70;;
20635;SDS011;10477;43.198;27.916;2022-09-27T00:47:05;49.97;;;46.27;;
20635;SDS011;10477;43.198;27.916;2022-09-27T00:49:36;47.93;;;44.33;;
20635;SDS011;10477;43.198;27.916;2022-09-27T00:52:11;47.40;;;43.90;;
20635;SDS011;10477;43.198;27.916;2022-09-27T00:54:37;47.50;;;43.90;;
20635;SDS011;10477;43.198;27.916;2022-09-27T00:57:06;45.83;;;42.43;;
20635;SDS011;10477;43.198;27.916;2022-09-27T00:59:37;45.00;;;41.70;;
20635;SDS011;10477;43.198;27.916;2022-09-27T01:02:06;44.37;;;41.07;;
20635;SDS011;10477;43.198;27.916;2022-09-27T01:04:34;45.30;;;41.90;;
20635;SDS011;10477;43.198;27.916;2022-09-27T01:07:04;44.47;;;41.17;;
20635;SDS011;10477;43.198;27.916;2022-09-27T01:09:33;43.53;;;40.33;;
20635;SDS011;10477;43.198;27.916;2022-09-27T01:12:15;44.10;;;40.83;;
20635;SDS011;10477;43.198;27.916;2022-09-27T01:17:50;45.40;;;42.10;;
20635;SDS011;10477;43.198;27.916;2022-09-27T01:37:18;40.20;;;37.10;;
20635;SDS011;10477;43.198;27.916;2022-09-27T01:39:47;41.90;;;38.80;;
20635;SDS011;10477;43.198;27.916;2022-09-27T01:42:23;39.53;;;36.63;;
20635;SDS011;10477;43.198;27.916;2022-09-27T01:45:03;41.17;;;38.07;;
20635;SDS011;10477;43.198;27.916;2022-09-27T01:47:41;40.40;;;37.40;;
20635;SDS011;10477;43.198;27.916;2022-09-27T01:50:54;41.57;;;38.47;;
20635;SDS011;10477;43.198;27.916;2022-09-27T01:53:06;41.13;;;38.03;;
20635;SDS011;10477;43.198;27.916;2022-09-27T01:55:35;43.25;;;39.98;;
20635;SDS011;10477;43.198;27.916;2022-09-27T01:58:12;39.20;;;36.20;;
20635;SDS011;10477;43.198;27.916;2022-09-27T02:00:41;39.63;;;36.63;;
20635;SDS011;10477;43.198;27.916;2022-09-27T02:03:12;39.47;;;36.47;;
20635;SDS011;10477;43.198;27.916;2022-09-27T02:05:48;39.17;;;36.17;;
20635;SDS011;10477;43.198;27.916;2022-09-27T02:08:27;40.47;;;37.40;;
20635;SDS011;10477;43.198;27.916;2022-09-27T02:16:40;36.43;;;33.53;;
20635;SDS011;10477;43.198;27.916;2022-09-27T02:22:18;44.58;;;40.88;;
20635;SDS011;10477;43.198;27.916;2022-09-27T02:25:23;37.87;;;34.87;;
20635;SDS011;10477;43.198;27.916;2022-09-27T02:27:58;40.50;;;37.40;;
20635;SDS011;10477;43.198;27.916;2022-09-27T02:30:30;42.57;;;39.37;;
20635;SDS011;10477;43.198;27.916;2022-09-27T02:32:58;51.70;;;47.87;;
20635;SDS011;10477;43.198;27.916;2022-09-27T02:35:34;44.03;;;40.63;;
20635;SDS011;10477;43.198;27.916;2022-09-27T02:37:59;47.03;;;43.37;;
20635;SDS011;10477;43.198;27.916;2022-09-27T02:40:33;43.47;;;40.17;;
20635;SDS011;10477;43.198;27.916;2022-09-27T02:43:03;46.33;;;42.83;;
20635;SDS011;10477;43.198;27.916;2022-09-27T02:45:38;52.40;;;48.50;;
20635;SDS011;10477;43.198;27.916;2022-09-27T02:51:20;50.03;;;46.23;;
20635;SDS011;10477;43.198;27.916;2022-09-27T02:53:57;50.73;;;46.83;;
20635;SDS011;10477;43.198;27.916;2022-09-27T03:04:09;52.70;;;48.80;;
20635;SDS011;10477;43.198;27.916;2022-09-27T03:06:38;52.60;;;48.60;;
20635;SDS011;10477;43.198;27.916;2022-09-27T03:09:20;57.00;;;52.70;;
20635;SDS011;10477;43.198;27.916;2022-09-27T03:11:50;61.33;;;56.73;;
20635;SDS011;10477;43.198;27.916;2022-09-27T03:14:17;56.17;;;51.97;;
20635;SDS011;10477;43.198;27.916;2022-09-27T03:16:45;57.30;;;52.90;;
20635;SDS011;10477;43.198;27.916;2022-09-27T03:19:13;56.27;;;51.97;;
20635;SDS011;10477;43.198;27.916;2022-09-27T03:21:41;61.47;;;56.87;;
20635;SDS011;10477;43.198;27.916;2022-09-27T03:24:08;59.20;;;54.70;;
20635;SDS011;10477;43.198;27.916;2022-09-27T03:26:36;58.33;;;53.80;;
20635;SDS011;10477;43.198;27.916;2022-09-27T03:29:04;57.90;;;53.40;;
20635;SDS011;10477;43.198;27.916;2022-09-27T03:31:31;54.23;;;49.83;;
20635;SDS011;10477;43.198;27.916;2022-09-27T03:33:59;51.33;;;47.23;;
20635;SDS011;10477;43.198;27.916;2022-09-27T03:36:27;51.20;;;47.10;;
20635;SDS011;10477;43.198;27.916;2022-09-27T03:38:54;53.10;;;48.80;;
20635;SDS011;10477;43.198;27.916;2022-09-27T03:41:23;49.07;;;45.07;;
20635;SDS011;10477;43.198;27.916;2022-09-27T03:43:50;49.77;;;45.77;;
20635;SDS011;10477;43.198;27.916;2022-09-27T03:46:20;47.57;;;43.57;;
20635;SDS011;10477;43.198;27.916;2022-09-27T03:48:47;54.03;;;49.67;;
20635;SDS011;10477;43.198;27.916;2022-09-27T03:51:15;61.70;;;55.70;;
20635;SDS011;10477;43.198;27.916;2022-09-27T03:53:43;46.07;;;42.27;;
20635;SDS011;10477;43.198;27.916;2022-09-27T03:56:10;47.63;;;43.73;;
20635;SDS011;10477;43.198;27.916;2022-09-27T03:58:38;49.00;;;44.80;;
20635;SDS011;10477;43.198;27.916;2022-09-27T04:01:06;45.43;;;41.70;;
20635;SDS011;10477;43.198;27.916;2022-09-27T04:03:33;47.30;;;43.43;;
20635;SDS011;10477;43.198;27.916;2022-09-27T04:06:03;52.47;;;48.17;;
20635;SDS011;10477;43.198;27.916;2022-09-27T04:08:31;46.73;;;42.90;;
20635;SDS011;10477;43.198;27.916;2022-09-27T04:10:58;49.57;;;45.53;;
20635;SDS011;10477;43.198;27.916;2022-09-27T04:13:27;83.77;;;75.70;;
20635;SDS011;10477;43.198;27.916;2022-09-27T04:15:55;45.90;;;42.10;;
20635;SDS011;10477;43.198;27.916;2022-09-27T04:18:23;47.17;;;43.27;;
20635;SDS011;10477;43.198;27.916;2022-09-27T04:20:51;43.80;;;40.20;;
20635;SDS011;10477;43.198;27.916;2022-09-27T04:23:18;41.07;;;37.57;;
20635;SDS011;10477;43.198;27.916;2022-09-27T04:25:46;40.47;;;36.97;;
20635;SDS011;10477;43.198;27.916;2022-09-27T04:28:15;39.27;;;35.87;;
20635;SDS011;10477;43.198;27.916;2022-09-27T04:30:42;49.25;;;44.15;;
20635;SDS011;10477;43.198;27.916;2022-09-27T04:33:12;36.57;;;33.27;;
20635;SDS011;10477;43.198;27.916;2022-09-27T04:35:41;39.40;;;36.00;;
20635;SDS011;10477;43.198;27.916;2022-09-27T04:38:26;45.00;;;41.30;;
20635;SDS011;10477;43.198;27.916;2022-09-27T04:40:54;38.87;;;35.57;;
20635;SDS011;10477;43.198;27.916;2022-09-27T04:43:22;37.60;;;34.40;;
20635;SDS011;10477;43.198;27.916;2022-09-27T04:45:51;39.33;;;35.93;;
20635;SDS011;10477;43.198;27.916;2022-09-27T04:48:18;39.13;;;35.63;;
20635;SDS011;10477;43.198;27.916;2022-09-27T04:50:46;37.20;;;33.90;;
20635;SDS011;10477;43.198;27.916;2022-09-27T04:53:17;36.33;;;33.07;;
20635;SDS011;10477;43.198;27.916;2022-09-27T04:55:45;36.48;;;33.18;;
20635;SDS011;10477;43.198;27.916;2022-09-27T04:58:14;37.53;;;34.20;;
20635;SDS011;10477;43.198;27.916;2022-09-27T05:00:43;33.50;;;30.40;;
20635;SDS011;10477;43.198;27.916;2022-09-27T05:03:12;41.33;;;37.73;;
20635;SDS011;10477;43.198;27.916;2022-09-27T05:05:40;38.83;;;35.33;;
20635;SDS011;10477;43.198;27.916;2022-09-27T05:08:07;41.40;;;37.83;;
20635;SDS011;10477;43.198;27.916;2022-09-27T05:10:35;34.93;;;31.73;;
20635;SDS011;10477;43.198;27.916;2022-09-27T05:13:03;43.97;;;36.93;;
20635;SDS011;10477;43.198;27.916;2022-09-27T05:15:31;39.40;;;36.00;;
20635;SDS011;10477;43.198;27.916;2022-09-27T05:18:00;43.90;;;40.30;;
20635;SDS011;10477;43.198;27.916;2022-09-27T05:20:29;42.40;;;38.90;;
20635;SDS011;10477;43.198;27.916;2022-09-27T05:22:57;38.17;;;34.87;;
20635;SDS011;10477;43.198;27.916;2022-09-27T05:25:25;45.37;;;41.50;;
20635;SDS011;10477;43.198;27.916;2022-09-27T05:27:53;36.50;;;33.33;;
20635;SDS011;10477;43.198;27.916;2022-09-27T05:30:22;38.10;;;34.80;;
20635;SDS011;10477;43.198;27.916;2022-09-27T05:32:50;37.70;;;34.25;;
20635;SDS011;10477;43.198;27.916;2022-09-27T05:35:18;37.48;;;34.18;;
20635;SDS011;10477;43.198;27.916;2022-09-27T05:37:50;42.45;;;38.95;;
20635;SDS011;10477;43.198;27.916;2022-09-27T05:40:22;36.30;;;33.13;;
20635;SDS011;10477;43.198;27.916;2022-09-27T05:42:54;38.90;;;35.70;;
20635;SDS011;10477;43.198;27.916;2022-09-27T05:45:22;36.88;;;33.78;;
20635;SDS011;10477;43.198;27.916;2022-09-27T05:47:54;36.98;;;33.90;;
20635;SDS011;10477;43.198;27.916;2022-09-27T05:50:29;37.00;;;34.00;;
20635;SDS011;10477;43.198;27.916;2022-09-27T05:52:57;37.20;;;34.20;;
20635;SDS011;10477;43.198;27.916;2022-09-27T05:55:25;35.35;;;32.45;;
20635;SDS011;10477;43.198;27.916;2022-09-27T05:58:02;33.78;;;30.97;;
20635;SDS011;10477;43.198;27.916;2022-09-27T06:00:27;35.08;;;32.17;;
20635;SDS011;10477;43.198;27.916;2022-09-27T06:02:56;38.40;;;35.33;;
20635;SDS011;10477;43.198;27.916;2022-09-27T06:05:26;39.75;;;36.65;;
20635;SDS011;10477;43.198;27.916;2022-09-27T06:08:00;42.23;;;39.00;;
20635;SDS011;10477;43.198;27.916;2022-09-27T06:10:31;36.42;;;33.58;;
20635;SDS011;10477;43.198;27.916;2022-09-27T06:13:03;36.80;;;33.83;;
20635;SDS011;10477;43.198;27.916;2022-09-27T06:15:33;35.33;;;32.42;;
20635;SDS011;10477;43.198;27.916;2022-09-27T06:18:05;41.35;;;38.02;;
20635;SDS011;10477;43.198;27.916;2022-09-27T06:20:36;34.03;;;31.27;;
20635;SDS011;10477;43.198;27.916;2022-09-27T06:23:07;33.80;;;31.02;;
20635;SDS011;10477;43.198;27.916;2022-09-27T06:25:41;31.10;;;28.55;;
20635;SDS011;10477;43.198;27.916;2022-09-27T06:28:09;31.30;;;28.70;;
20635;SDS011;10477;43.198;27.916;2022-09-27T06:30:44;32.42;;;29.15;;
20635;SDS011;10477;43.198;27.916;2022-09-27T06:33:09;30.77;;;28.20;;
20635;SDS011;10477;43.198;27.916;2022-09-27T06:35:39;30.57;;;28.07;;
20635;SDS011;10477;43.198;27.916;2022-09-27T06:38:10;30.72;;;28.23;;
20635;SDS011;10477;43.198;27.916;2022-09-27T06:40:41;28.38;;;25.97;;
20635;SDS011;10477;43.198;27.916;2022-09-27T06:43:14;35.28;;;32.30;;
20635;SDS011;10477;43.198;27.916;2022-09-27T06:45:44;27.48;;;25.10;;
20635;SDS011;10477;43.198;27.916;2022-09-27T06:48:13;29.05;;;26.75;;
20635;SDS011;10477;43.198;27.916;2022-09-27T06:50:42;30.70;;;28.30;;
20635;SDS011;10477;43.198;27.916;2022-09-27T06:53:13;29.30;;;27.00;;
20635;SDS011;10477;43.198;27.916;2022-09-27T06:55:42;31.20;;;28.80;;
20635;SDS011;10477;43.198;27.916;2022-09-27T06:58:10;29.27;;;27.07;;
20635;SDS011;10477;43.198;27.916;2022-09-27T07:00:55;27.50;;;25.30;;
20635;SDS011;10477;43.198;27.916;2022-09-27T07:03:20;26.90;;;24.75;;
20635;SDS011;10477;43.198;27.916;2022-09-27T07:05:58;31.67;;;29.23;;
20635;SDS011;10477;43.198;27.916;2022-09-27T07:08:24;63.63;;;56.85;;
20635;SDS011;10477;43.198;27.916;2022-09-27T07:10:53;27.95;;;25.75;;
20635;SDS011;10477;43.198;27.916;2022-09-27T07:13:24;29.05;;;26.75;;
20635;SDS011;10477;43.198;27.916;2022-09-27T07:15:53;28.77;;;26.48;;
20635;SDS011;10477;43.198;27.916;2022-09-27T07:18:21;26.57;;;24.47;;
20635;SDS011;10477;43.198;27.916;2022-09-27T07:20:49;26.10;;;24.00;;
20635;SDS011;10477;43.198;27.916;2022-09-27T07:23:17;25.95;;;23.95;;
20635;SDS011;10477;43.198;27.916;2022-09-27T07:25:45;26.20;;;24.18;;
20635;SDS011;10477;43.198;27.916;2022-09-27T07:28:14;25.70;;;23.70;;
20635;SDS011;10477;43.198;27.916;2022-09-27T07:30:44;26.30;;;24.30;;
20635;SDS011;10477;43.198;27.916;2022-09-27T07:33:12;37.83;;;34.23;;
20635;SDS011;10477;43.198;27.916;2022-09-27T07:35:40;41.85;;;33.92;;
20635;SDS011;10477;43.198;27.916;2022-09-27T07:38:09;26.95;;;24.30;;
20635;SDS011;10477;43.198;27.916;2022-09-27T07:40:39;26.42;;;24.27;;
20635;SDS011;10477;43.198;27.916;2022-09-27T07:43:07;26.30;;;24.20;;
20635;SDS011;10477;43.198;27.916;2022-09-27T07:45:37;27.45;;;25.27;;
20635;SDS011;10477;43.198;27.916;2022-09-27T07:48:07;28.17;;;25.97;;
20635;SDS011;10477;43.198;27.916;2022-09-27T07:50:38;28.60;;;26.42;;
20635;SDS011;10477;43.198;27.916;2022-09-27T07:53:06;27.15;;;24.98;;
20635;SDS011;10477;43.198;27.916;2022-09-27T07:55:35;27.95;;;25.80;;
20635;SDS011;10477;43.198;27.916;2022-09-27T07:58:05;28.02;;;25.65;;
20635;SDS011;10477;43.198;27.916;2022-09-27T08:00:34;32.53;;;30.02;;
20635;SDS011;10477;43.198;27.916;2022-09-27T08:03:07;29.12;;;26.60;;
20635;SDS011;10477;43.198;27.916;2022-09-27T08:05:39;30.80;;;28.50;;
20635;SDS011;10477;43.198;27.916;2022-09-27T08:08:08;25.77;;;23.57;;
20635;SDS011;10477;43.198;27.916;2022-09-27T08:10:36;30.77;;;28.55;;
20635;SDS011;10477;43.198;27.916;2022-09-27T08:13:06;23.83;;;21.93;;
20635;SDS011;10477;43.198;27.916;2022-09-27T08:15:34;23.00;;;21.20;;
20635;SDS011;10477;43.198;27.916;2022-09-27T08:18:06;24.05;;;22.15;;
20635;SDS011;10477;43.198;27.916;2022-09-27T08:20:37;29.32;;;27.07;;
20635;SDS011;10477;43.198;27.916;2022-09-27T08:23:05;27.25;;;25.15;;
20635;SDS011;10477;43.198;27.916;2022-09-27T08:25:33;27.25;;;25.02;;
20635;SDS011;10477;43.198;27.916;2022-09-27T08:28:01;27.48;;;25.17;;
20635;SDS011;10477;43.198;27.916;2022-09-27T08:30:31;29.77;;;27.48;;
20635;SDS011;10477;43.198;27.916;2022-09-27T08:33:00;24.77;;;22.73;;
20635;SDS011;10477;43.198;27.916;2022-09-27T08:35:28;24.43;;;22.42;;
20635;SDS011;10477;43.198;27.916;2022-09-27T08:37:58;24.47;;;22.48;;
20635;SDS011;10477;43.198;27.916;2022-09-27T08:40:36;31.48;;;29.18;;
20635;SDS011;10477;43.198;27.916;2022-09-27T08:43:32;30.45;;;27.52;;
20635;SDS011;10477;43.198;27.916;2022-09-27T08:48:37;23.87;;;21.87;;
20635;SDS011;10477;43.198;27.916;2022-09-27T08:51:08;22.67;;;20.68;;
20635;SDS011;10477;43.198;27.916;2022-09-27T08:53:45;21.48;;;19.67;;
20635;SDS011;10477;43.198;27.916;2022-09-27T08:56:11;21.87;;;19.82;;
20635;SDS011;10477;43.198;27.916;2022-09-27T08:58:44;21.20;;;19.40;;
20635;SDS011;10477;43.198;27.916;2022-09-27T09:01:16;23.73;;;21.42;;
20635;SDS011;10477;43.198;27.916;2022-09-27T09:03:52;25.05;;;22.95;;
20635;SDS011;10477;43.198;27.916;2022-09-27T09:06:22;21.77;;;19.98;;
20635;SDS011;10477;43.198;27.916;2022-09-27T09:09:14;23.05;;;21.15;;
20635;SDS011;10477;43.198;27.916;2022-09-27T09:11:45;29.98;;;24.92;;
20635;SDS011;10477;43.198;27.916;2022-09-27T09:17:45;23.20;;;21.15;;
20635;SDS011;10477;43.198;27.916;2022-09-27T09:25:35;30.23;;;24.18;;
20635;SDS011;10477;43.198;27.916;2022-09-27T09:33:29;21.80;;;20.00;;
20635;SDS011;10477;43.198;27.916;2022-09-27T09:36:08;24.18;;;21.27;;
20635;SDS011;10477;43.198;27.916;2022-09-27T09:38:43;21.37;;;19.57;;
20635;SDS011;10477;43.198;27.916;2022-09-27T09:41:20;23.62;;;21.73;;
20635;SDS011;10477;43.198;27.916;2022-09-27T09:44:01;21.80;;;20.00;;
20635;SDS011;10477;43.198;27.916;2022-09-27T09:46:41;24.27;;;21.95;;
20635;SDS011;10477;43.198;27.916;2022-09-27T09:49:13;22.50;;;20.62;;
20635;SDS011;10477;43.198;27.916;2022-09-27T09:51:45;33.78;;;27.80;;
20635;SDS011;10477;43.198;27.916;2022-09-27T09:54:28;26.93;;;24.23;;
20635;SDS011;10477;43.198;27.916;2022-09-27T09:56:58;27.25;;;25.15;;
20635;SDS011;10477;43.198;27.916;2022-09-27T09:59:26;30.08;;;25.95;;
20635;SDS011;10477;43.198;27.916;2022-09-27T10:01:57;22.07;;;20.32;;
20635;SDS011;10477;43.198;27.916;2022-09-27T10:04:26;24.52;;;22.60;;
20635;SDS011;10477;43.198;27.916;2022-09-27T10:06:56;23.30;;;21.23;;
20635;SDS011;10477;43.198;27.916;2022-09-27T10:09:27;28.57;;;25.92;;
20635;SDS011;10477;43.198;27.916;2022-09-27T10:11:55;22.70;;;20.80;;
20635;SDS011;10477;43.198;27.916;2022-09-27T10:14:24;22.48;;;20.68;;
20635;SDS011;10477;43.198;27.916;2022-09-27T10:16:57;24.75;;;22.70;;
20635;SDS011;10477;43.198;27.916;2022-09-27T10:19:31;21.02;;;19.42;;
20635;SDS011;10477;43.198;27.916;2022-09-27T10:22:04;21.90;;;20.10;;
20635;SDS011;10477;43.198;27.916;2022-09-27T10:25:05;25.05;;;23.25;;
20635;SDS011;10477;43.198;27.916;2022-09-27T10:27:41;21.55;;;19.95;;
20635;SDS011;10477;43.198;27.916;2022-09-27T10:32:55;22.60;;;20.80;;
20635;SDS011;10477;43.198;27.916;2022-09-27T10:35:32;27.55;;;25.00;;
20635;SDS011;10477;43.198;27.916;2022-09-27T10:40:49;21.48;;;19.57;;
20635;SDS011;10477;43.198;27.916;2022-09-27T10:43:26;22.20;;;20.15;;
20635;SDS011;10477;43.198;27.916;2022-09-27T10:46:08;23.05;;;21.25;;
20635;SDS011;10477;43.198;27.916;2022-09-27T10:48:36;22.48;;;20.77;;
20635;SDS011;10477;43.198;27.916;2022-09-27T10:53:53;21.80;;;20.10;;
20635;SDS011;10477;43.198;27.916;2022-09-27T10:56:24;24.32;;;22.20;;
20635;SDS011;10477;43.198;27.916;2022-09-27T10:58:56;23.65;;;21.85;;
20635;SDS011;10477;43.198;27.916;2022-09-27T11:01:25;30.25;;;27.17;;
20635;SDS011;10477;43.198;27.916;2022-09-27T11:03:56;34.95;;;31.05;;
20635;SDS011;10477;43.198;27.916;2022-09-27T11:06:27;21.68;;;19.98;;
20635;SDS011;10477;43.198;27.916;2022-09-27T11:09:08;31.87;;;28.40;;
20635;SDS011;10477;43.198;27.916;2022-09-27T11:11:37;22.20;;;20.50;;
20635;SDS011;10477;43.198;27.916;2022-09-27T11:14:15;41.10;;;26.45;;
20635;SDS011;10477;43.198;27.916;2022-09-27T11:25:09;22.05;;;20.37;;
20635;SDS011;10477;43.198;27.916;2022-09-27T11:36:33;20.95;;;19.32;;
20635;SDS011;10477;43.198;27.916;2022-09-27T11:39:21;21.68;;;19.92;;
20635;SDS011;10477;43.198;27.916;2022-09-27T11:52:53;25.80;;;23.75;;
20635;SDS011;10477;43.198;27.916;2022-09-27T11:55:27;23.65;;;21.85;;
20635;SDS011;10477;43.198;27.916;2022-09-27T11:58:03;22.42;;;20.72;;
20635;SDS011;10477;43.198;27.916;2022-09-27T12:06:24;21.93;;;19.98;;
20635;SDS011;10477;43.198;27.916;2022-09-27T12:09:02;23.32;;;21.25;;
20635;SDS011;10477;43.198;27.916;2022-09-27T12:11:38;25.05;;;22.93;;
20635;SDS011;10477;43.198;27.916;2022-09-27T12:14:23;21.82;;;20.10;;
20635;SDS011;10477;43.198;27.916;2022-09-27T12:17:05;22.20;;;20.37;;
20635;SDS011;10477;43.198;27.916;2022-09-27T12:19:42;20.70;;;19.00;;
20635;SDS011;10477;43.198;27.916;2022-09-27T12:22:13;25.97;;;22.80;;
20635;SDS011;10477;43.198;27.916;2022-09-27T12:24:45;22.55;;;20.27;;
20635;SDS011;10477;43.198;27.916;2022-09-27T12:27:15;21.52;;;19.82;;
20635;SDS011;10477;43.198;27.916;2022-09-27T12:29:44;34.13;;;30.57;;
20635;SDS011;10477;43.198;27.916;2022-09-27T12:32:21;23.32;;;21.25;;
20635;SDS011;10477;43.198;27.916;2022-09-27T12:34:59;23.30;;;21.40;;
20635;SDS011;10477;43.198;27.916;2022-09-27T12:37:33;22.58;;;20.57;;
20635;SDS011;10477;43.198;27.916;2022-09-27T12:40:05;23.38;;;21.55;;
20635;SDS011;10477;43.198;27.916;2022-09-27T12:42:41;22.82;;;20.50;;
20635;SDS011;10477;43.198;27.916;2022-09-27T12:45:15;22.58;;;20.68;;
20635;SDS011;10477;43.198;27.916;2022-09-27T12:50:30;38.02;;;19.80;;
20635;SDS011;10477;43.198;27.916;2022-09-27T12:53:23;24.55;;;22.05;;
20635;SDS011;10477;43.198;27.916;2022-09-27T12:58:57;25.88;;;22.82;;
20635;SDS011;10477;43.198;27.916;2022-09-27T13:06:43;24.95;;;22.62;;
20635;SDS011;10477;43.198;27.916;2022-09-27T13:09:59;32.00;;;25.20;;
20635;SDS011;10477;43.198;27.916;2022-09-27T13:12:08;23.07;;;21.42;;
20635;SDS011;10477;43.198;27.916;2022-09-27T13:14:48;26.15;;;23.75;;
20635;SDS011;10477;43.198;27.916;2022-09-27T13:22:59;25.68;;;23.87;;
20635;SDS011;10477;43.198;27.916;2022-09-27T13:34:40;22.90;;;21.20;;
20635;SDS011;10477;43.198;27.916;2022-09-27T13:42:54;24.92;;;22.73;;
20635;SDS011;10477;43.198;27.916;2022-09-27T13:45:51;20.88;;;19.37;;
20635;SDS011;10477;43.198;27.916;2022-09-27T13:48:26;33.63;;;30.12;;
20635;SDS011;10477;43.198;27.916;2022-09-27T13:51:04;39.38;;;30.97;;
20635;SDS011;10477;43.198;27.916;2022-09-27T13:53:58;25.77;;;23.85;;
20635;SDS011;10477;43.198;27.916;2022-09-27T13:59:13;24.55;;;22.58;;
20635;SDS011;10477;43.198;27.916;2022-09-27T14:02:10;22.70;;;21.10;;
20635;SDS011;10477;43.198;27.916;2022-09-27T14:04:41;23.65;;;21.95;;
20635;SDS011;10477;43.198;27.916;2022-09-27T14:07:17;22.30;;;20.70;;
20635;SDS011;10477;43.198;27.916;2022-09-27T14:09:48;22.60;;;21.00;;
20635;SDS011;10477;43.198;27.916;2022-09-27T14:12:24;22.42;;;20.82;;
20635;SDS011;10477;43.198;27.916;2022-09-27T14:14:51;21.73;;;20.15;;
20635;SDS011;10477;43.198;27.916;2022-09-27T14:17:21;21.48;;;19.87;;
20635;SDS011;10477;43.198;27.916;2022-09-27T14:19:50;22.45;;;20.65;;
20635;SDS011;10477;43.198;27.916;2022-09-27T14:22:20;35.98;;;28.12;;
20635;SDS011;10477;43.198;27.916;2022-09-27T14:24:53;22.87;;;20.82;;
20635;SDS011;10477;43.198;27.916;2022-09-27T14:27:22;24.27;;;22.05;;
20635;SDS011;10477;43.198;27.916;2022-09-27T14:29:58;24.00;;;22.20;;
20635;SDS011;10477;43.198;27.916;2022-09-27T14:32:28;26.45;;;24.45;;
20635;SDS011;10477;43.198;27.916;2022-09-27T14:35:02;86.70;;;54.85;;
20635;SDS011;10477;43.198;27.916;2022-09-27T14:37:34;27.05;;;24.95;;
20635;SDS011;10477;43.198;27.916;2022-09-27T14:40:04;33.55;;;30.85;;
20635;SDS011;10477;43.198;27.916;2022-09-27T14:42:34;173.15;;;149.80;;
20635;SDS011;10477;43.198;27.916;2022-09-27T14:45:23;33.92;;;30.92;;
20635;SDS011;10477;43.198;27.916;2022-09-27T14:47:46;36.58;;;33.18;;
20635;SDS011;10477;43.198;27.916;2022-09-27T14:50:25;36.20;;;33.00;;
20635;SDS011;10477;43.198;27.916;2022-09-27T14:52:54;41.90;;;38.20;;
20635;SDS011;10477;43.198;27.916;2022-09-27T14:55:26;57.00;;;52.43;;
20635;SDS011;10477;43.198;27.916;2022-09-27T14:57:58;49.70;;;45.25;;
20635;SDS011;10477;43.198;27.916;2022-09-27T15:00:31;52.33;;;47.75;;
20635;SDS011;10477;43.198;27.916;2022-09-27T15:03:03;51.88;;;47.58;;
20635;SDS011;10477;43.198;27.916;2022-09-27T15:05:34;67.85;;;61.25;;
20635;SDS011;10477;43.198;27.916;2022-09-27T15:08:05;51.25;;;47.05;;
20635;SDS011;10477;43.198;27.916;2022-09-27T15:10:34;50.38;;;46.02;;
20635;SDS011;10477;43.198;27.916;2022-09-27T15:13:05;50.25;;;45.98;;
20635;SDS011;10477;43.198;27.916;2022-09-27T15:15:34;48.95;;;44.85;;
20635;SDS011;10477;43.198;27.916;2022-09-27T15:20:59;52.05;;;47.67;;
20635;SDS011;10477;43.198;27.916;2022-09-27T15:23:27;50.85;;;46.75;;
20635;SDS011;10477;43.198;27.916;2022-09-27T15:26:06;90.95;;;82.67;;
20635;SDS011;10477;43.198;27.916;2022-09-27T15:28:49;49.25;;;45.10;;
20635;SDS011;10477;43.198;27.916;2022-09-27T15:31:28;50.45;;;46.35;;
20635;SDS011;10477;43.198;27.916;2022-09-27T15:33:52;51.58;;;47.58;;
20635;SDS011;10477;43.198;27.916;2022-09-27T15:37:09;44.42;;;40.70;;
20635;SDS011;10477;43.198;27.916;2022-09-27T15:39:11;44.45;;;40.75;;
20635;SDS011;10477;43.198;27.916;2022-09-27T15:41:59;45.43;;;41.60;;
20635;SDS011;10477;43.198;27.916;2022-09-27T15:52:55;41.20;;;37.30;;
20635;SDS011;10477;43.198;27.916;2022-09-27T15:55:28;45.20;;;41.18;;
20635;SDS011;10477;43.198;27.916;2022-09-27T15:57:53;44.70;;;40.90;;
20635;SDS011;10477;43.198;27.916;2022-09-27T16:00:24;43.35;;;39.65;;
20635;SDS011;10477;43.198;27.916;2022-09-27T16:02:52;44.85;;;40.85;;
20635;SDS011;10477;43.198;27.916;2022-09-27T16:05:20;48.48;;;44.48;;
20635;SDS011;10477;43.198;27.916;2022-09-27T16:07:49;49.03;;;44.67;;
20635;SDS011;10477;43.198;27.916;2022-09-27T16:10:18;48.92;;;44.83;;
20635;SDS011;10477;43.198;27.916;2022-09-27T16:12:48;49.48;;;45.38;;
20635;SDS011;10477;43.198;27.916;2022-09-27T16:15:16;50.23;;;46.02;;
20635;SDS011;10477;43.198;27.916;2022-09-27T16:17:43;53.60;;;49.20;;
20635;SDS011;10477;43.198;27.916;2022-09-27T16:22:51;50.60;;;46.40;;
20635;SDS011;10477;43.198;27.916;2022-09-27T16:25:20;51.42;;;47.13;;
20635;SDS011;10477;43.198;27.916;2022-09-27T16:27:49;55.40;;;51.00;;
20635;SDS011;10477;43.198;27.916;2022-09-27T16:30:17;53.35;;;49.03;;
20635;SDS011;10477;43.198;27.916;2022-09-27T16:32:46;53.90;;;49.60;;
20635;SDS011;10477;43.198;27.916;2022-09-27T16:35:15;54.80;;;50.35;;
20635;SDS011;10477;43.198;27.916;2022-09-27T16:37:45;55.92;;;51.42;;
20635;SDS011;10477;43.198;27.916;2022-09-27T16:40:13;51.30;;;47.00;;
20635;SDS011;10477;43.198;27.916;2022-09-27T16:42:49;52.80;;;48.40;;
20635;SDS011;10477;43.198;27.916;2022-09-27T16:45:17;51.77;;;47.53;;
20635;SDS011;10477;43.198;27.916;2022-09-27T16:47:44;51.68;;;47.38;;
20635;SDS011;10477;43.198;27.916;2022-09-27T16:50:13;53.75;;;49.25;;
20635;SDS011;10477;43.198;27.916;2022-09-27T16:52:58;50.03;;;45.75;;
20635;SDS011;10477;43.198;27.916;2022-09-27T16:55:26;54.27;;;49.85;;
20635;SDS011;10477;43.198;27.916;2022-09-27T16:57:56;54.60;;;50.10;;
20635;SDS011;10477;43.198;27.916;2022-09-27T17:00:24;58.35;;;53.65;;
20635;SDS011;10477;43.198;27.916;2022-09-27T17:02:52;59.73;;;54.93;;
20635;SDS011;10477;43.198;27.916;2022-09-27T17:05:19;63.92;;;59.03;;
20635;SDS011;10477;43.198;27.916;2022-09-27T17:07:50;63.08;;;58.05;;